createdAt,value
2018-10-21T00:00:11.899Z,7.96
2018-10-21T00:01:11.753Z,7.99
2018-10-21T00:03:03.674Z,7.94
2018-10-21T00:04:03.572Z,7.81
2018-10-21T00:05:55.322Z,7.74
2018-10-21T00:06:55.255Z,7.69
2018-10-21T00:08:47.036Z,7.51
2018-10-21T00:09:46.949Z,7.55
2018-10-21T00:11:38.739Z,7.54
2018-10-21T00:12:38.640Z,7.50
2018-10-21T00:14:30.427Z,7.45
2018-10-21T00:15:30.441Z,7.37
2018-10-21T00:17:22.124Z,7.26
2018-10-21T00:18:22.017Z,7.12
2018-10-21T00:20:13.799Z,7.23
2018-10-21T00:21:13.811Z,7.19
2018-10-21T00:23:06.590Z,7.26
2018-10-21T00:24:06.458Z,7.18
2018-10-21T00:25:58.217Z,7.21
2018-10-21T00:26:58.212Z,7.19
2018-10-21T00:28:49.916Z,7.19
2018-10-21T00:29:49.834Z,7.12
2018-10-21T00:31:41.621Z,7.15
2018-10-21T00:32:41.516Z,7.07
2018-10-21T00:34:33.272Z,6.99
2018-10-21T00:35:33.189Z,7.07
2018-10-21T00:37:24.969Z,7.00
2018-10-21T00:38:24.882Z,7.12
2018-10-21T00:40:16.638Z,7.00
2018-10-21T00:41:16.550Z,6.99
2018-10-21T00:43:08.373Z,7.04
2018-10-21T00:44:08.258Z,7.23
2018-10-21T00:46:00.024Z,7.18
2018-10-21T00:46:59.951Z,7.26
2018-10-21T00:48:51.733Z,7.18
2018-10-21T00:49:51.626Z,7.26
2018-10-21T00:51:43.458Z,7.16
2018-10-21T00:52:43.382Z,7.05
2018-10-21T00:54:35.144Z,6.99
2018-10-21T00:55:35.061Z,7.00
2018-10-21T00:57:26.833Z,6.96
2018-10-21T00:58:26.761Z,7.04
2018-10-21T01:00:18.540Z,7.01
2018-10-21T01:01:18.457Z,7.01
2018-10-21T01:03:10.314Z,6.99
2018-10-21T01:04:10.230Z,6.99
2018-10-21T01:06:01.901Z,7.00
2018-10-21T01:07:01.829Z,6.89
2018-10-21T01:08:53.694Z,6.89
2018-10-21T01:09:53.542Z,6.90
2018-10-21T01:11:45.291Z,6.76
2018-10-21T01:12:45.215Z,6.91
2018-10-21T01:14:36.986Z,7.00
2018-10-21T01:15:36.899Z,6.99
2018-10-21T01:17:28.835Z,7.07
2018-10-21T01:18:28.791Z,7.01
2018-10-21T01:20:20.574Z,7.08
2018-10-21T01:21:20.488Z,7.12
2018-10-21T01:23:13.256Z,6.99
2018-10-21T01:24:13.182Z,6.91
2018-10-21T01:26:04.943Z,7.01
2018-10-21T01:27:04.918Z,7.01
2018-10-21T01:28:57.664Z,7.09
2018-10-21T01:29:57.578Z,6.97
2018-10-21T01:31:50.337Z,6.93
2018-10-21T01:32:50.266Z,6.93
2018-10-21T01:34:43.039Z,6.90
2018-10-21T01:35:42.954Z,6.93
2018-10-21T01:37:35.714Z,6.75
2018-10-21T01:38:35.642Z,6.75
2018-10-21T01:40:28.473Z,6.61
2018-10-21T01:41:28.325Z,6.69
2018-10-21T01:43:20.095Z,6.57
2018-10-21T01:44:19.998Z,6.57
2018-10-21T01:46:11.838Z,6.53
2018-10-21T01:47:11.741Z,6.43
2018-10-21T01:49:03.510Z,6.40
2018-10-21T01:50:03.434Z,6.28
2018-10-21T01:51:55.381Z,6.36
2018-10-21T01:52:55.311Z,6.19
2018-10-21T01:54:47.097Z,6.16
2018-10-21T01:55:47.011Z,6.10
2018-10-21T01:57:38.787Z,5.96
2018-10-21T01:58:38.719Z,5.99
2018-10-21T02:00:30.478Z,5.96
2018-10-21T02:01:30.465Z,5.93
2018-10-21T02:03:22.187Z,5.96
2018-10-21T02:04:22.110Z,6.02
2018-10-21T02:06:13.879Z,6.17
2018-10-21T02:07:13.791Z,6.16
2018-10-21T02:09:05.585Z,6.17
2018-10-21T02:10:05.471Z,6.17
2018-10-21T02:11:57.219Z,6.16
2018-10-21T02:12:57.162Z,6.13
2018-10-21T02:14:48.937Z,6.01
2018-10-21T02:15:48.845Z,5.98
2018-10-21T02:17:40.610Z,5.99
2018-10-21T02:18:40.557Z,5.95
2018-10-21T02:20:32.308Z,6.06
2018-10-21T02:21:32.226Z,6.06
2018-10-21T02:23:24.059Z,6.05
2018-10-21T02:24:23.990Z,5.99
2018-10-21T02:26:16.815Z,5.96
2018-10-21T02:27:16.738Z,5.92
2018-10-21T02:29:08.436Z,5.78
2018-10-21T02:30:08.365Z,5.78
2018-10-21T02:32:00.141Z,5.75
2018-10-21T02:33:00.132Z,5.78
2018-10-21T02:34:51.809Z,5.67
2018-10-21T02:35:51.738Z,5.66
2018-10-21T02:37:43.524Z,5.75
2018-10-21T02:38:43.451Z,5.74
2018-10-21T02:40:35.231Z,5.70
2018-10-21T02:41:35.152Z,5.65
2018-10-21T02:43:27.929Z,5.66
2018-10-21T02:44:27.838Z,5.69
2018-10-21T02:46:19.599Z,5.65
2018-10-21T02:47:19.520Z,5.67
2018-10-21T02:49:11.279Z,5.70
2018-10-21T02:50:11.252Z,5.67
2018-10-21T02:52:02.945Z,5.55
2018-10-21T02:53:02.871Z,5.42
2018-10-21T02:54:54.661Z,5.47
2018-10-21T02:55:54.568Z,5.44
2018-10-21T02:57:46.322Z,5.37
2018-10-21T02:58:46.244Z,5.41
2018-10-21T03:00:38.016Z,5.48
2018-10-21T03:01:37.933Z,5.44
2018-10-21T03:03:30.683Z,5.40
2018-10-21T03:04:30.613Z,5.41
2018-10-21T03:06:22.441Z,5.41
2018-10-21T03:07:22.351Z,5.42
2018-10-21T03:09:14.125Z,5.30
2018-10-21T03:10:14.029Z,5.42
2018-10-21T03:12:05.775Z,5.44
2018-10-21T03:13:05.699Z,5.41
2018-10-21T03:14:57.514Z,5.42
2018-10-21T03:15:57.406Z,5.37
2018-10-21T03:17:49.217Z,5.33
2018-10-21T03:18:49.145Z,5.26
2018-10-21T03:20:40.949Z,5.37
2018-10-21T03:21:40.865Z,5.33
2018-10-21T03:23:32.635Z,5.27
2018-10-21T03:24:32.573Z,5.38
2018-10-21T03:26:24.333Z,5.44
2018-10-21T03:27:24.309Z,5.47
2018-10-21T03:29:17.112Z,5.60
2018-10-21T03:30:16.935Z,5.56
2018-10-21T03:32:09.735Z,5.56
2018-10-21T03:33:09.696Z,5.65
2018-10-21T03:35:01.450Z,5.60
2018-10-21T03:36:01.379Z,5.63
2018-10-21T03:37:53.214Z,5.75
2018-10-21T03:38:53.138Z,5.80
2018-10-21T03:40:44.888Z,5.74
2018-10-21T03:41:44.820Z,5.75
2018-10-21T03:43:36.610Z,5.73
2018-10-21T03:44:36.542Z,5.60
2018-10-21T03:46:28.329Z,5.63
2018-10-21T03:47:28.250Z,5.69
2018-10-21T03:49:21.004Z,5.65
2018-10-21T03:50:20.931Z,5.63
2018-10-21T03:52:13.821Z,5.51
2018-10-21T03:53:13.651Z,5.51
2018-10-21T03:55:06.381Z,5.42
2018-10-21T03:56:06.307Z,5.38
2018-10-21T03:57:59.108Z,5.37
2018-10-21T03:58:59.013Z,5.27
2018-10-21T04:00:51.788Z,5.30
2018-10-21T04:01:51.710Z,5.17
2018-10-21T04:03:44.459Z,5.15
2018-10-21T04:04:44.392Z,5.05
2018-10-21T04:06:37.160Z,5.11
2018-10-21T04:07:37.078Z,5.12
2018-10-21T04:09:29.837Z,5.04
2018-10-21T04:10:29.769Z,5.08
2018-10-21T04:12:22.531Z,5.04
2018-10-21T04:13:22.453Z,4.97
2018-10-21T04:15:14.243Z,4.97
2018-10-21T04:16:14.321Z,4.88
2018-10-21T04:18:06.034Z,4.91
2018-10-21T04:19:05.948Z,4.88
2018-10-21T04:20:57.725Z,4.90
2018-10-21T04:21:57.666Z,4.90
2018-10-21T04:23:49.379Z,5.05
2018-10-21T04:24:49.311Z,5.08
2018-10-21T04:26:41.080Z,5.11
2018-10-21T04:27:41.000Z,5.12
2018-10-21T04:29:32.886Z,5.26
2018-10-21T04:30:32.811Z,5.06
2018-10-21T04:32:24.564Z,5.15
2018-10-21T04:33:24.484Z,5.24
2018-10-21T04:35:16.295Z,5.02
2018-10-21T04:36:16.220Z,5.08
2018-10-21T04:38:08.011Z,4.99
2018-10-21T04:39:07.934Z,4.91
2018-10-21T04:40:59.746Z,5.02
2018-10-21T04:41:59.660Z,5.11
2018-10-21T04:43:51.452Z,5.06
2018-10-21T04:44:51.385Z,4.99
2018-10-21T04:46:43.215Z,4.88
2018-10-21T04:47:43.068Z,4.83
2018-10-21T04:49:34.931Z,4.68
2018-10-21T04:50:34.853Z,4.67
2018-10-21T04:52:27.609Z,4.69
2018-10-21T04:53:27.553Z,4.77
2018-10-21T04:55:20.315Z,4.74
2018-10-21T04:56:20.241Z,4.68
2018-10-21T04:58:13.108Z,4.64
2018-10-21T04:59:12.934Z,4.59
2018-10-21T05:01:05.753Z,4.53
2018-10-21T05:02:05.639Z,4.54
2018-10-21T05:03:58.483Z,4.44
2018-10-21T05:04:58.325Z,4.43
2018-10-21T05:06:51.132Z,4.39
2018-10-21T05:07:51.078Z,4.36
2018-10-21T05:09:43.807Z,4.43
2018-10-21T05:10:43.716Z,4.31
2018-10-21T05:12:36.493Z,4.44
2018-10-21T05:13:36.417Z,4.49
2018-10-21T05:15:29.193Z,4.51
2018-10-21T05:16:29.153Z,4.54
2018-10-21T05:18:21.917Z,4.49
2018-10-21T05:19:21.840Z,4.35
2018-10-21T05:21:14.590Z,4.35
2018-10-21T05:22:14.589Z,4.39
2018-10-21T05:24:07.393Z,4.28
2018-10-21T05:25:07.237Z,4.29
2018-10-21T05:26:59.997Z,4.21
2018-10-21T05:27:59.964Z,4.20
2018-10-21T05:29:52.671Z,4.24
2018-10-21T05:30:52.600Z,4.18
2018-10-21T05:32:44.366Z,4.25
2018-10-21T05:33:44.286Z,4.21
2018-10-21T05:35:36.214Z,4.24
2018-10-21T05:36:36.122Z,4.42
2018-10-21T05:38:28.926Z,4.31
2018-10-21T05:39:28.862Z,4.32
2018-10-21T05:41:20.617Z,4.31
2018-10-21T05:42:20.628Z,4.29
2018-10-21T05:44:13.318Z,4.32
2018-10-21T05:45:13.233Z,4.42
2018-10-21T05:47:05.082Z,4.46
2018-10-21T05:48:04.983Z,4.43
2018-10-21T05:49:56.742Z,4.29
2018-10-21T05:50:56.658Z,4.24
2018-10-21T05:52:48.626Z,4.24
2018-10-21T05:53:48.502Z,4.20
2018-10-21T05:55:40.282Z,4.24
2018-10-21T05:56:40.212Z,4.26
2018-10-21T05:58:32.097Z,4.29
2018-10-21T05:59:31.970Z,4.32
2018-10-21T06:01:23.763Z,4.43
2018-10-21T06:02:23.704Z,4.44
2018-10-21T06:04:15.611Z,4.49
2018-10-21T06:05:15.442Z,4.42
2018-10-21T06:07:07.217Z,4.57
2018-10-21T06:08:07.130Z,4.61
2018-10-21T06:09:58.989Z,4.72
2018-10-21T06:10:58.851Z,4.75
2018-10-21T06:12:51.614Z,4.74
2018-10-21T06:13:51.539Z,4.79
2018-10-21T06:15:43.470Z,4.90
2018-10-21T06:16:43.339Z,4.91
2018-10-21T06:18:35.175Z,5.06
2018-10-21T06:19:35.104Z,5.08
2018-10-21T06:21:26.908Z,5.05
2018-10-21T06:22:26.830Z,5.09
2018-10-21T06:24:18.767Z,5.09
2018-10-21T06:25:18.690Z,5.12
2018-10-21T06:27:10.457Z,5.35
2018-10-21T06:28:10.394Z,5.44
2018-10-21T06:30:02.150Z,5.62
2018-10-21T06:31:02.063Z,5.69
2018-10-21T06:32:53.915Z,5.90
2018-10-21T06:33:53.783Z,5.95
2018-10-21T06:35:46.539Z,6.06
2018-10-21T06:36:46.549Z,6.16
2018-10-21T06:38:39.249Z,6.33
2018-10-21T06:39:39.170Z,6.28
2018-10-21T06:41:31.955Z,6.36
2018-10-21T06:42:31.888Z,6.43
2018-10-21T06:44:23.660Z,6.51
2018-10-21T06:45:23.711Z,6.51
2018-10-21T06:47:16.370Z,6.63
2018-10-21T06:48:16.301Z,6.63
2018-10-21T06:50:09.061Z,6.78
2018-10-21T06:51:09.038Z,6.79
2018-10-21T06:53:01.757Z,6.91
2018-10-21T06:54:01.720Z,6.96
2018-10-21T06:55:54.506Z,7.23
2018-10-21T06:56:54.449Z,7.21
2018-10-21T06:58:47.202Z,7.39
2018-10-21T06:59:47.150Z,7.44
2018-10-21T07:01:38.935Z,7.45
2018-10-21T07:02:38.869Z,7.55
2018-10-21T07:04:31.691Z,7.63
2018-10-21T07:05:31.566Z,7.73
2018-10-21T07:07:24.328Z,7.94
2018-10-21T07:08:24.264Z,7.99
2018-10-21T07:10:16.204Z,8.00
2018-10-21T07:11:16.121Z,7.99
2018-10-21T07:13:07.881Z,7.99
2018-10-21T07:14:07.793Z,7.91
2018-10-21T07:15:59.638Z,7.96
2018-10-21T07:16:59.481Z,7.86
2018-10-21T07:18:51.301Z,7.99
2018-10-21T07:19:51.199Z,8.12
2018-10-21T07:21:42.972Z,8.18
2018-10-21T07:22:42.976Z,8.03
2018-10-21T07:24:35.003Z,8.04
2018-10-21T07:25:34.800Z,8.22
2018-10-21T07:27:26.701Z,8.54
2018-10-21T07:28:26.410Z,8.54
2018-10-21T07:30:18.282Z,8.70
2018-10-21T07:31:18.151Z,8.70
2018-10-21T07:33:10.170Z,8.76
2018-10-21T07:34:10.200Z,8.86
2018-10-21T07:36:03.210Z,9.03
2018-10-21T07:37:02.328Z,9.06
2018-10-21T07:38:54.049Z,9.24
2018-10-21T07:39:54.012Z,9.30
2018-10-21T07:41:47.061Z,9.40
2018-10-21T07:42:46.802Z,9.48
2018-10-21T07:44:38.554Z,9.35
2018-10-21T07:45:38.576Z,9.17
2018-10-21T07:47:31.565Z,9.19
2018-10-21T07:48:31.608Z,9.31
2018-10-21T07:50:23.281Z,9.67
2018-10-21T07:51:23.199Z,9.75
2018-10-21T07:53:15.224Z,9.73
2018-10-21T07:54:15.079Z,9.71
2018-10-21T07:56:06.939Z,9.83
2018-10-21T07:57:07.015Z,9.85
2018-10-21T07:58:58.662Z,9.85
2018-10-21T07:59:58.588Z,9.85
2018-10-21T08:01:50.385Z,10.14
2018-10-21T08:02:50.384Z,10.26
2018-10-21T08:04:42.607Z,10.39
2018-10-21T08:05:42.299Z,10.28
2018-10-21T08:07:33.976Z,10.24
2018-10-21T08:08:33.938Z,10.26
2018-10-21T08:10:25.699Z,10.16
2018-10-21T08:11:25.629Z,10.14
2018-10-21T08:13:19.314Z,10.09
2018-10-21T08:14:18.569Z,9.99
2018-10-21T08:16:11.643Z,9.86
2018-10-21T08:17:11.387Z,9.80
2018-10-21T08:19:03.415Z,9.89
2018-10-21T08:20:03.206Z,10.22
2018-10-21T08:21:55.010Z,10.66
2018-10-21T08:22:54.968Z,10.86
2018-10-21T08:24:46.871Z,11.16
2018-10-21T08:25:46.654Z,11.09
2018-10-21T08:27:38.407Z,11.45
2018-10-21T08:28:38.347Z,11.81
2018-10-21T08:30:30.198Z,12.96
2018-10-21T08:31:30.082Z,13.25
2018-10-21T08:33:21.826Z,14.49
2018-10-21T08:34:21.748Z,14.86
2018-10-21T08:36:13.528Z,15.00
2018-10-21T08:37:13.450Z,14.87
2018-10-21T08:39:05.237Z,15.49
2018-10-21T08:40:05.260Z,15.77
2018-10-21T08:41:57.024Z,16.01
2018-10-21T08:42:56.896Z,16.33
2018-10-21T08:44:48.752Z,16.65
2018-10-21T08:45:48.663Z,16.75
2018-10-21T08:47:40.493Z,16.69
2018-10-21T08:48:40.404Z,16.01
2018-10-21T08:50:33.339Z,16.04
2018-10-21T08:51:33.131Z,16.34
2018-10-21T08:53:26.335Z,16.42
2018-10-21T08:54:26.197Z,16.54
2018-10-21T08:56:17.958Z,16.87
2018-10-21T08:57:17.953Z,17.06
2018-10-21T08:59:10.820Z,17.28
2018-10-21T09:00:10.701Z,17.51
2018-10-21T09:02:02.545Z,17.65
2018-10-21T09:03:02.480Z,17.71
2018-10-21T09:04:55.266Z,17.71
2018-10-21T09:05:55.225Z,17.79
2018-10-21T09:07:46.991Z,17.96
2018-10-21T09:08:46.973Z,17.92
2018-10-21T09:10:38.855Z,17.83
2018-10-21T09:11:38.650Z,17.77
2018-10-21T09:13:30.629Z,17.80
2018-10-21T09:14:30.507Z,17.79
2018-10-21T09:16:22.453Z,17.86
2018-10-21T09:17:22.347Z,17.36
2018-10-21T09:19:14.320Z,17.32
2018-10-21T09:20:14.235Z,17.39
2018-10-21T09:22:07.130Z,17.51
2018-10-21T09:23:07.065Z,17.03
2018-10-21T09:25:00.136Z,17.03
2018-10-21T09:26:00.072Z,16.87
2018-10-21T09:27:51.977Z,16.44
2018-10-21T09:28:51.745Z,16.65
2018-10-21T09:30:43.575Z,16.99
2018-10-21T09:31:43.501Z,16.78
2018-10-21T09:33:36.421Z,16.42
2018-10-21T09:34:36.356Z,16.63
2018-10-21T09:36:28.179Z,16.48
2018-10-21T09:37:28.088Z,16.18
2018-10-21T09:39:20.445Z,16.32
2018-10-21T09:40:20.767Z,15.91
2018-10-21T09:42:13.056Z,15.73
2018-10-21T09:43:13.054Z,15.91
2018-10-21T09:45:05.778Z,16.42
2018-10-21T09:46:05.665Z,16.72
2018-10-21T09:47:58.519Z,16.17
2018-10-21T09:48:58.355Z,16.29
2018-10-21T09:50:51.182Z,16.44
2018-10-21T09:51:51.146Z,16.48
2018-10-21T09:53:43.974Z,16.91
2018-10-21T09:54:43.941Z,17.09
2018-10-21T09:56:35.916Z,17.27
2018-10-21T09:57:35.817Z,17.42
2018-10-21T09:59:28.612Z,17.40
2018-10-21T10:00:28.561Z,17.28
2018-10-21T10:02:21.435Z,17.32
2018-10-21T10:03:21.293Z,17.36
2018-10-21T10:05:14.138Z,17.47
2018-10-21T10:06:14.034Z,17.63
2018-10-21T10:08:06.842Z,17.63
2018-10-21T10:09:06.845Z,17.60
2018-10-21T10:10:59.648Z,17.27
2018-10-21T10:11:59.543Z,17.00
2018-10-21T10:13:52.376Z,16.40
2018-10-21T10:14:52.363Z,16.22
2018-10-21T10:16:44.089Z,16.52
2018-10-21T10:17:44.042Z,16.57
2018-10-21T10:19:35.832Z,16.81
2018-10-21T10:20:35.729Z,16.78
2018-10-21T10:22:27.512Z,17.02
2018-10-21T10:23:27.547Z,17.07
2018-10-21T10:25:19.366Z,17.10
2018-10-21T10:26:19.169Z,17.14
2018-10-21T10:28:10.965Z,17.15
2018-10-21T10:29:10.881Z,17.07
2018-10-21T10:31:02.746Z,17.24
2018-10-21T10:32:02.585Z,17.39
2018-10-21T10:33:54.345Z,17.43
2018-10-21T10:34:54.341Z,17.51
2018-10-21T10:36:46.087Z,17.06
2018-10-21T10:37:46.055Z,17.20
2018-10-21T10:39:37.776Z,17.09
2018-10-21T10:40:37.715Z,17.07
2018-10-21T10:42:29.636Z,17.32
2018-10-21T10:43:29.515Z,17.43
2018-10-21T10:45:21.593Z,17.46
2018-10-21T10:46:21.491Z,17.46
2018-10-21T10:48:13.681Z,17.58
2018-10-21T10:49:13.457Z,17.63
2018-10-21T10:51:05.354Z,17.35
2018-10-21T10:52:05.344Z,17.07
2018-10-21T10:53:56.933Z,17.09
2018-10-21T10:54:56.909Z,17.14
2018-10-21T10:56:49.776Z,17.10
2018-10-21T10:57:49.654Z,17.09
2018-10-21T10:59:41.399Z,17.07
2018-10-21T11:00:41.277Z,17.21
2018-10-21T11:02:33.109Z,17.07
2018-10-21T11:03:33.012Z,17.03
2018-10-21T11:05:24.772Z,16.36
2018-10-21T11:06:24.789Z,16.04
2018-10-21T11:08:16.516Z,15.67
2018-10-21T11:09:16.488Z,15.56
2018-10-21T11:11:08.353Z,15.59
2018-10-21T11:12:08.196Z,15.68
2018-10-21T11:14:00.169Z,15.77
2018-10-21T11:14:59.919Z,15.80
2018-10-21T11:16:52.750Z,15.77
2018-10-21T11:17:52.623Z,15.91
2018-10-21T11:19:44.512Z,15.88
2018-10-21T11:20:44.476Z,16.01
2018-10-21T11:22:37.336Z,16.07
2018-10-21T11:23:37.230Z,16.22
2018-10-21T11:25:30.057Z,16.30
2018-10-21T11:26:29.968Z,16.37
2018-10-21T11:28:21.827Z,16.18
2018-10-21T11:29:21.753Z,16.22
2018-10-21T11:31:13.808Z,16.10
2018-10-21T11:32:13.599Z,16.14
2018-10-21T11:34:06.445Z,16.16
2018-10-21T11:35:06.344Z,16.18
2018-10-21T11:36:58.288Z,16.08
2018-10-21T11:37:58.125Z,16.04
2018-10-21T11:39:49.894Z,16.06
2018-10-21T11:40:49.844Z,16.06
2018-10-21T11:42:41.678Z,15.86
2018-10-21T11:43:41.602Z,15.92
2018-10-21T11:45:34.586Z,15.88
2018-10-21T11:46:34.575Z,15.86
2018-10-21T11:48:27.347Z,15.99
2018-10-21T11:49:27.257Z,15.89
2018-10-21T11:51:20.032Z,15.95
2018-10-21T11:52:20.048Z,15.93
2018-10-21T11:54:12.821Z,16.01
2018-10-21T11:55:12.782Z,16.06
2018-10-21T11:57:04.515Z,16.04
2018-10-21T11:58:04.499Z,16.10
2018-10-21T11:59:57.296Z,16.01
2018-10-21T12:00:57.171Z,16.01
2018-10-21T12:02:48.947Z,15.85
2018-10-21T12:03:48.868Z,16.08
2018-10-21T12:05:41.737Z,15.85
2018-10-21T12:06:41.667Z,15.85
2018-10-21T12:08:33.802Z,16.03
2018-10-21T12:09:33.357Z,16.01
2018-10-21T12:11:25.153Z,15.88
2018-10-21T12:12:25.113Z,15.88
2018-10-21T12:14:17.090Z,15.89
2018-10-21T12:15:17.076Z,15.96
2018-10-21T12:17:08.752Z,15.84
2018-10-21T12:18:08.641Z,16.04
2018-10-21T12:20:00.643Z,16.17
2018-10-21T12:21:00.377Z,16.17
2018-10-21T12:22:52.270Z,16.16
2018-10-21T12:23:52.160Z,16.32
2018-10-21T12:25:44.055Z,16.26
2018-10-21T12:26:43.839Z,16.22
2018-10-21T12:28:35.598Z,16.23
2018-10-21T12:29:35.539Z,16.18
2018-10-21T12:31:27.330Z,16.06
2018-10-21T12:32:27.272Z,16.10
2018-10-21T12:34:19.152Z,16.03
2018-10-21T12:35:19.011Z,16.01
2018-10-21T12:37:11.884Z,16.03
2018-10-21T12:38:11.710Z,16.08
2018-10-21T12:40:04.564Z,15.88
2018-10-21T12:41:04.437Z,16.06
2018-10-21T12:42:57.215Z,16.08
2018-10-21T12:43:57.119Z,16.07
2018-10-21T12:45:49.966Z,15.98
2018-10-21T12:46:49.885Z,16.01
2018-10-21T12:48:42.714Z,16.04
2018-10-21T12:49:42.678Z,16.03
2018-10-21T12:51:34.471Z,16.08
2018-10-21T12:52:34.390Z,15.93
2018-10-21T12:54:26.216Z,15.93
2018-10-21T12:55:26.104Z,15.92
2018-10-21T12:57:17.899Z,15.92
2018-10-21T12:58:17.874Z,15.88
2018-10-21T13:00:09.583Z,15.86
2018-10-21T13:01:09.546Z,15.99
2018-10-21T13:03:01.259Z,16.03
2018-10-21T13:04:01.208Z,15.85
2018-10-21T13:05:54.061Z,15.91
2018-10-21T13:06:53.956Z,15.91
2018-10-21T13:08:46.750Z,15.91
2018-10-21T13:09:46.674Z,15.85
2018-10-21T13:11:39.530Z,15.86
2018-10-21T13:12:39.484Z,15.86
2018-10-21T13:14:32.248Z,15.86
2018-10-21T13:15:32.149Z,15.89
2018-10-21T13:17:24.925Z,15.85
2018-10-21T13:18:24.857Z,15.89
2018-10-21T13:20:16.643Z,15.80
2018-10-21T13:21:16.550Z,15.80
2018-10-21T13:23:09.378Z,15.81
2018-10-21T13:24:09.307Z,15.84
2018-10-21T13:26:01.103Z,15.76
2018-10-21T13:27:01.036Z,15.74
2018-10-21T13:28:52.893Z,15.80
2018-10-21T13:29:52.758Z,15.71
2018-10-21T13:31:45.523Z,15.76
2018-10-21T13:32:45.463Z,15.77
2018-10-21T13:34:37.370Z,15.73
2018-10-21T13:35:37.254Z,15.62
2018-10-21T13:37:29.043Z,15.66
2018-10-21T13:38:28.939Z,15.67
2018-10-21T13:40:21.942Z,15.71
2018-10-21T13:41:21.682Z,15.59
2018-10-21T13:43:13.535Z,15.53
2018-10-21T13:44:13.413Z,15.60
2018-10-21T13:46:05.262Z,15.58
2018-10-21T13:47:05.089Z,15.58
2018-10-21T13:48:56.901Z,15.62
2018-10-21T13:49:56.799Z,15.52
2018-10-21T13:51:48.605Z,15.49
2018-10-21T13:52:48.500Z,15.52
2018-10-21T13:54:40.275Z,15.46
2018-10-21T13:55:40.360Z,15.55
2018-10-21T13:57:32.116Z,15.53
2018-10-21T13:58:32.143Z,15.53
2018-10-21T14:00:23.847Z,15.58
2018-10-21T14:01:23.799Z,15.51
2018-10-21T14:03:15.539Z,15.44
2018-10-21T14:04:15.510Z,15.46
2018-10-21T14:06:07.229Z,15.41
2018-10-21T14:07:07.167Z,15.46
2018-10-21T14:08:58.919Z,15.38
2018-10-21T14:09:58.890Z,15.38
2018-10-21T14:11:50.618Z,15.33
2018-10-21T14:12:50.535Z,15.33
2018-10-21T14:14:42.314Z,15.46
2018-10-21T14:15:42.231Z,15.34
2018-10-21T14:17:33.991Z,15.38
2018-10-21T14:18:33.925Z,15.34
2018-10-21T14:20:25.700Z,15.35
2018-10-21T14:21:25.617Z,15.37
2018-10-21T14:23:17.467Z,15.23
2018-10-21T14:24:17.484Z,15.28
2018-10-21T14:26:09.149Z,15.30
2018-10-21T14:27:09.068Z,15.18
2018-10-21T14:29:00.887Z,15.25
2018-10-21T14:30:00.843Z,15.19
2018-10-21T14:31:52.528Z,15.15
2018-10-21T14:32:52.466Z,15.20
2018-10-21T14:34:44.240Z,15.13
2018-10-21T14:35:44.165Z,15.04
2018-10-21T14:37:35.983Z,15.04
2018-10-21T14:38:35.933Z,15.03
2018-10-21T14:40:28.687Z,14.95
2018-10-21T14:41:28.583Z,14.95
2018-10-21T14:43:20.470Z,15.01
2018-10-21T14:44:20.393Z,15.03
2018-10-21T14:46:12.267Z,14.91
2018-10-21T14:47:12.137Z,14.97
2018-10-21T14:49:04.020Z,14.79
2018-10-21T14:50:03.912Z,14.87
2018-10-21T14:51:56.728Z,14.86
2018-10-21T14:52:56.709Z,14.74
2018-10-21T14:54:48.463Z,14.74
2018-10-21T14:55:48.358Z,14.63
2018-10-21T14:57:41.240Z,14.74
2018-10-21T14:58:41.180Z,14.67
2018-10-21T15:00:33.177Z,14.72
2018-10-21T15:01:32.883Z,14.64
2018-10-21T15:03:25.688Z,14.67
2018-10-21T15:04:25.678Z,14.59
2018-10-21T15:06:18.494Z,14.49
2018-10-21T15:07:18.364Z,14.49
2018-10-21T15:09:10.199Z,14.48
2018-10-21T15:10:10.117Z,14.46
2018-10-21T15:12:01.937Z,14.38
2018-10-21T15:13:01.764Z,14.34
2018-10-21T15:14:53.584Z,14.23
2018-10-21T15:15:53.503Z,14.20
2018-10-21T15:17:45.268Z,14.17
2018-10-21T15:18:45.194Z,14.08
2018-10-21T15:20:36.998Z,14.21
2018-10-21T15:21:36.931Z,14.11
2018-10-21T15:23:28.890Z,14.02
2018-10-21T15:24:28.717Z,14.06
2018-10-21T15:26:20.529Z,13.86
2018-10-21T15:27:20.453Z,13.86
2018-10-21T15:29:12.256Z,13.79
2018-10-21T15:30:12.227Z,13.65
2018-10-21T15:32:04.006Z,13.68
2018-10-21T15:33:03.961Z,13.55
2018-10-21T15:34:55.704Z,13.59
2018-10-21T15:35:55.619Z,13.50
2018-10-21T15:37:47.434Z,13.50
2018-10-21T15:38:47.361Z,13.43
2018-10-21T15:40:39.171Z,13.28
2018-10-21T15:41:39.125Z,13.29
2018-10-21T15:43:30.947Z,13.29
2018-10-21T15:44:30.856Z,13.28
2018-10-21T15:46:23.806Z,13.21
2018-10-21T15:47:23.745Z,13.06
2018-10-21T15:49:15.389Z,12.91
2018-10-21T15:50:15.379Z,12.95
2018-10-21T15:52:07.192Z,12.84
2018-10-21T15:53:07.134Z,12.73
2018-10-21T15:54:59.939Z,12.66
2018-10-21T15:55:59.871Z,12.58
2018-10-21T15:57:51.705Z,12.34
2018-10-21T15:58:51.577Z,12.44
2018-10-21T16:00:43.463Z,12.22
2018-10-21T16:01:43.319Z,12.15
2018-10-21T16:03:35.408Z,11.94
2018-10-21T16:04:35.193Z,11.82
2018-10-21T16:06:26.968Z,11.69
2018-10-21T16:07:26.914Z,11.57
2018-10-21T16:09:18.666Z,11.53
2018-10-21T16:10:18.794Z,11.42
2018-10-21T16:12:10.517Z,11.35
2018-10-21T16:13:10.385Z,11.27
2018-10-21T16:15:02.439Z,11.20
2018-10-21T16:16:02.370Z,11.20
2018-10-21T16:17:54.294Z,11.11
2018-10-21T16:18:54.215Z,11.03
2018-10-21T16:20:46.031Z,10.99
2018-10-21T16:21:45.941Z,10.90
2018-10-21T16:23:37.705Z,10.76
2018-10-21T16:24:37.604Z,10.68
2018-10-21T16:26:29.407Z,10.60
2018-10-21T16:27:29.293Z,10.57
2018-10-21T16:29:21.053Z,10.51
2018-10-21T16:30:20.992Z,10.49
2018-10-21T16:32:13.846Z,10.34
2018-10-21T16:33:13.710Z,10.28
2018-10-21T16:35:05.672Z,10.26
2018-10-21T16:36:05.631Z,10.25
2018-10-21T16:37:58.383Z,10.14
2018-10-21T16:38:58.407Z,10.11
2018-10-21T16:40:50.113Z,10.01
2018-10-21T16:41:50.023Z,10.04
2018-10-21T16:43:41.778Z,10.02
2018-10-21T16:44:41.709Z,9.91
2018-10-21T16:46:34.666Z,9.93
2018-10-21T16:47:34.413Z,9.91
2018-10-21T16:49:27.198Z,9.86
2018-10-21T16:50:27.129Z,9.71
2018-10-21T16:52:19.932Z,9.67
2018-10-21T16:53:19.873Z,9.67
2018-10-21T16:55:11.622Z,9.62
2018-10-21T16:56:11.551Z,9.56
2018-10-21T16:58:03.373Z,9.50
2018-10-21T16:59:03.359Z,9.52
2018-10-21T17:00:56.244Z,9.40
2018-10-21T17:01:56.010Z,9.44
2018-10-21T17:03:47.942Z,9.45
2018-10-21T17:04:47.802Z,9.34
2018-10-21T17:06:40.584Z,9.37
2018-10-21T17:07:40.508Z,9.40
2018-10-21T17:09:32.426Z,9.37
2018-10-21T17:10:32.670Z,9.32
2018-10-21T17:12:24.025Z,9.34
2018-10-21T17:13:23.936Z,9.40
2018-10-21T17:15:16.721Z,9.31
2018-10-21T17:16:16.803Z,9.22
2018-10-21T17:18:08.391Z,9.34
2018-10-21T17:19:08.368Z,9.17
2018-10-21T17:21:01.124Z,9.24
2018-10-21T17:22:01.031Z,9.20
2018-10-21T17:23:53.013Z,9.22
2018-10-21T17:24:52.951Z,9.19
2018-10-21T17:26:44.784Z,9.17
2018-10-21T17:27:44.666Z,9.15
2018-10-21T17:29:36.553Z,9.04
2018-10-21T17:30:36.447Z,9.03
2018-10-21T17:32:28.148Z,9.01
2018-10-21T17:33:28.070Z,9.03
2018-10-21T17:35:20.828Z,9.04
2018-10-21T17:36:20.773Z,8.97
2018-10-21T17:38:12.541Z,8.85
2018-10-21T17:39:12.480Z,8.83
2018-10-21T17:41:05.248Z,8.83
2018-10-21T17:42:05.155Z,8.73
2018-10-21T17:43:57.942Z,8.70
2018-10-21T17:44:57.879Z,8.71
2018-10-21T17:46:50.654Z,8.70
2018-10-21T17:47:50.562Z,8.64
2018-10-21T17:49:43.361Z,8.55
2018-10-21T17:50:43.285Z,8.57
2018-10-21T17:52:35.116Z,8.63
2018-10-21T17:53:34.979Z,8.54
2018-10-21T17:55:27.735Z,8.54
2018-10-21T17:56:27.661Z,8.57
2018-10-21T17:58:19.595Z,8.58
2018-10-21T17:59:19.339Z,8.60
2018-10-21T18:01:11.338Z,8.49
2018-10-21T18:02:11.236Z,8.45
2018-10-21T18:04:04.056Z,8.39
2018-10-21T18:05:03.944Z,8.45
2018-10-21T18:06:56.768Z,8.45
2018-10-21T18:07:56.667Z,8.42
2018-10-21T18:09:49.415Z,8.42
2018-10-21T18:10:49.349Z,8.37
2018-10-21T18:12:42.141Z,8.34
2018-10-21T18:13:42.060Z,8.27
2018-10-21T18:15:34.826Z,8.34
2018-10-21T18:16:34.752Z,8.36
2018-10-21T18:18:27.582Z,8.31
2018-10-21T18:19:27.471Z,8.21
2018-10-21T18:21:20.313Z,8.27
2018-10-21T18:22:20.208Z,8.18
2018-10-21T18:24:12.971Z,8.07
2018-10-21T18:25:13.002Z,8.10
2018-10-21T18:27:05.697Z,8.10
2018-10-21T18:28:05.752Z,8.02
2018-10-21T18:29:58.375Z,8.03
2018-10-21T18:30:58.379Z,8.06
2018-10-21T18:32:51.145Z,8.00
2018-10-21T18:33:51.035Z,8.03
2018-10-21T18:35:42.766Z,8.04
2018-10-21T18:36:42.690Z,7.94
2018-10-21T18:38:35.484Z,7.99
2018-10-21T18:39:35.387Z,7.89
2018-10-21T18:41:28.656Z,7.91
2018-10-21T18:42:28.576Z,7.82
2018-10-21T18:44:21.374Z,7.86
2018-10-21T18:45:21.301Z,7.79
2018-10-21T18:47:14.102Z,7.77